Fairchance, Pennsylvania
Current Conditions -  °F | °C
As of 11:53 PM on Saturday 20 Dec 2014 (Local Time) from KMGW Reporting Station
Overcast Overcast  
Wind Chill: -1°   Ceiling: 2600
Heat Index: -1°   Visibility: 10mi
Dew Point: -8°   Wind: 0mph
Humidity: 61%   Direction: NA
Pressure: 30.26"   Gusts: NA
Location:  39.82°N, 79.75°W
Report Text: KMGW 210453Z AUTO 00000KT 10SM OVC026 M01/M08 A3026 RMK AO2 SLP259 T10111078 400221022 TSNO
Loading
Personal Weather Stations






























Interactive Weather Map New forecast layout! Learn more

10-Day Weather Forecast

Advertisements
Track Severe Weather on mobile